Time;durP1;ratioP1;P1;durP2;ratioP2;P2;SDS_P1;SDS_P2;PMS_P1;PMS_P2;Temp;Humidity;BMP_temperature;BMP_pressure;BME280_temperature;BME280_humidity;BME280_pressure;Samples;Min_cycle;Max_cycle;Signal;HPM_P1;HPM_P2
2022/03/02 00:01:39;;;;;;;46.90;28.05;;;4.20;99.90;;;;;;5036976;28;20056;-96
2022/03/02 00:04:04;;;;;;;43.67;28.20;;;4.20;99.90;;;;;;5036105;28;20045;-96
2022/03/02 00:06:31;;;;;;;42.90;27.95;;;4.10;99.90;;;;;;5035795;28;20045;-96
2022/03/02 00:08:57;;;;;;;41.90;26.95;;;4.30;99.90;;;;;;5036275;28;20053;-94
2022/03/02 00:11:24;;;;;;;39.53;26.52;;;4.10;99.90;;;;;;5035528;28;20063;-96
2022/03/02 00:13:50;;;;;;;43.72;27.77;;;4.10;99.90;;;;;;5035694;28;20559;-95
2022/03/02 00:16:19;;;;;;;46.60;26.23;;;4.00;99.90;;;;;;5037005;28;20083;-95
2022/03/02 00:18:45;;;;;;;46.75;28.83;;;4.00;99.90;;;;;;5020411;28;20049;-95
2022/03/02 00:21:11;;;;;;;48.13;27.13;;;4.20;99.90;;;;;;5036091;28;20045;-95
2022/03/02 00:23:37;;;;;;;42.72;27.80;;;4.00;99.90;;;;;;5020575;28;20045;-96
2022/03/02 00:26:03;;;;;;;46.83;28.33;;;4.20;99.90;;;;;;5039823;28;20052;-95
2022/03/02 00:28:29;;;;;;;44.30;26.92;;;4.10;99.90;;;;;;5023353;28;20139;-96
2022/03/02 00:30:55;;;;;;;40.35;25.75;;;4.00;99.90;;;;;;5023797;28;20045;-96
2022/03/02 00:33:20;;;;;;;46.00;27.92;;;4.20;99.90;;;;;;5039408;28;20400;-96
2022/03/02 00:35:46;;;;;;;46.75;26.95;;;4.10;99.90;;;;;;5056076;28;20179;-95
2022/03/02 00:38:13;;;;;;;42.88;27.42;;;4.00;99.90;;;;;;5039872;28;20115;-95
2022/03/02 00:40:39;;;;;;;46.45;28.73;;;4.10;99.90;;;;;;5039540;28;20052;-96
2022/03/02 00:43:06;;;;;;;41.28;27.90;;;4.00;99.90;;;;;;5039165;28;20043;-95
2022/03/02 00:45:32;;;;;;;43.50;27.35;;;4.00;99.90;;;;;;5039791;28;20037;-96
2022/03/02 00:48:03;;;;;;;46.83;28.42;;;4.00;99.90;;;;;;5039187;28;20047;-95
2022/03/02 00:50:30;;;;;;;46.78;28.08;;;4.00;99.90;;;;;;5039329;28;20111;-95
2022/03/02 00:52:56;;;;;;;45.35;29.52;;;4.00;99.90;;;;;;5023057;28;20111;-95
2022/03/02 00:55:22;;;;;;;44.47;27.85;;;4.00;99.90;;;;;;5039178;28;20047;-95
2022/03/02 00:57:48;;;;;;;47.30;29.45;;;4.00;99.90;;;;;;5039277;28;20049;-95
2022/03/02 01:00:14;;;;;;;46.88;28.95;;;4.00;99.90;;;;;;5023448;28;20037;-96
2022/03/02 01:02:40;;;;;;;44.00;27.65;;;4.00;99.90;;;;;;5039121;28;20040;-95
2022/03/02 01:05:07;;;;;;;46.05;27.85;;;4.00;99.90;;;;;;5039367;28;20041;-96
2022/03/02 01:07:34;;;;;;;47.15;29.08;;;4.00;99.90;;;;;;5022755;28;20136;-94
2022/03/02 01:10:01;;;;;;;46.10;29.52;;;4.10;99.90;;;;;;5038683;28;20152;-96
2022/03/02 01:12:27;;;;;;;46.10;28.63;;;4.00;99.90;;;;;;5022994;28;20045;-96
2022/03/02 01:14:53;;;;;;;48.03;29.75;;;4.00;99.90;;;;;;5038974;28;20513;-96
2022/03/02 01:17:20;;;;;;;51.28;30.30;;;3.90;99.90;;;;;;5038483;28;20045;-95
2022/03/02 01:19:47;;;;;;;44.10;27.85;;;3.90;99.90;;;;;;5039207;28;20096;-96
2022/03/02 01:22:13;;;;;;;45.92;29.20;;;3.90;99.90;;;;;;5038578;28;20131;-96
2022/03/02 01:24:42;;;;;;;47.80;30.48;;;4.10;99.90;;;;;;5038900;28;20500;-96
2022/03/02 01:27:10;;;;;;;48.33;30.48;;;3.90;99.90;;;;;;5038851;28;20048;-94
2022/03/02 01:29:36;;;;;;;50.00;29.30;;;4.10;99.90;;;;;;5022985;28;20067;-95
2022/03/02 01:32:08;;;;;;;49.20;29.70;;;3.90;99.90;;;;;;5038427;28;20113;-96
2022/03/02 01:34:35;;;;;;;48.63;29.70;;;3.90;99.90;;;;;;5037850;28;20043;-96
2022/03/02 01:37:01;;;;;;;52.08;31.35;;;3.80;99.90;;;;;;5038128;28;20052;-95
2022/03/02 01:39:27;;;;;;;44.53;28.40;;;3.80;99.90;;;;;;5038612;28;20099;-95
2022/03/02 01:41:53;;;;;;;50.65;31.23;;;3.80;99.90;;;;;;5038545;28;20408;-96
2022/03/02 01:44:19;;;;;;;43.90;28.35;;;3.80;99.90;;;;;;5022156;28;20055;-94
2022/03/02 01:46:45;;;;;;;45.83;28.23;;;3.90;99.90;;;;;;5038425;28;20049;-95
2022/03/02 01:49:11;;;;;;;47.67;29.95;;;3.70;99.90;;;;;;5038227;28;20087;-95
2022/03/02 01:51:38;;;;;;;46.65;28.30;;;3.70;99.90;;;;;;5037909;28;20069;-95
2022/03/02 01:54:05;;;;;;;54.90;32.50;;;3.40;99.90;;;;;;5038156;28;20045;-96
2022/03/02 01:56:33;;;;;;;51.55;30.23;;;3.20;99.90;;;;;;5038984;28;20475;-94
2022/03/02 01:58:59;;;;;;;46.72;29.42;;;3.00;99.90;;;;;;5038565;28;20048;-96
2022/03/02 02:01:25;;;;;;;49.22;31.23;;;2.80;99.90;;;;;;5037852;28;20049;-95
2022/03/02 02:03:51;;;;;;;54.17;32.17;;;2.70;99.90;;;;;;5021835;28;20039;-96
2022/03/02 02:06:17;;;;;;;57.80;33.47;;;2.40;99.90;;;;;;5021400;28;20504;-94
2022/03/02 02:08:43;;;;;;;60.77;33.93;;;2.30;99.90;;;;;;5037713;28;20041;-95
2022/03/02 02:11:11;;;;;;;56.90;33.37;;;2.20;99.90;;;;;;5037473;28;20435;-95
2022/03/02 02:13:37;;;;;;;59.07;34.57;;;2.20;99.90;;;;;;5021585;28;20132;-94
2022/03/02 02:16:04;;;;;;;60.50;33.13;;;2.00;99.90;;;;;;5037803;28;20068;-95
2022/03/02 02:18:31;;;;;;;62.47;36.17;;;2.00;99.90;;;;;;5037763;28;20294;-94
2022/03/02 02:21:10;;;;;;;62.80;35.80;;;1.80;99.90;;;;;;5037323;28;20132;-94
2022/03/02 02:23:37;;;;;;;64.37;35.70;;;1.70;99.90;;;;;;5037743;28;20041;-94
2022/03/02 02:26:04;;;;;;;66.83;37.03;;;1.70;1.00;;;;;;5037893;28;20037;-94
2022/03/02 02:28:31;;;;;;;63.10;35.63;;;1.70;1.00;;;;;;5021045;28;20073;-95
2022/03/02 02:31:00;;;;;;;68.97;38.10;;;1.80;1.00;;;;;;5021170;28;20558;-94
2022/03/02 02:33:27;;;;;;;74.87;39.03;;;1.70;1.00;;;;;;5037660;28;20462;-94
2022/03/02 02:35:53;;;;;;;73.97;38.80;;;1.70;1.00;;;;;;5020844;28;20044;-95
2022/03/02 02:38:22;;;;;;;69.60;38.53;;;1.70;3.20;;;;;;5020955;28;20041;-96
2022/03/02 02:40:49;;;;;;;75.00;40.70;;;1.70;1.00;;;;;;5037261;28;20044;-96
2022/03/02 02:43:16;;;;;;;75.00;38.60;;;1.60;51.60;;;;;;5036916;28;20088;-96
2022/03/02 02:45:42;;;;;;;75.20;39.13;;;1.50;24.40;;;;;;5020412;28;20095;-96
2022/03/02 02:48:10;;;;;;;86.03;40.50;;;1.50;45.50;;;;;;5036828;28;20044;-96
2022/03/02 02:50:51;;;;;;;80.30;40.60;;;1.50;44.10;;;;;;5037002;28;20377;-96
2022/03/02 02:53:17;;;;;;;80.93;40.77;;;1.30;99.90;;;;;;5037184;28;20049;-94
2022/03/02 02:55:44;;;;;;;81.20;40.63;;;1.40;99.90;;;;;;5037466;28;20135;-96
2022/03/02 02:58:11;;;;;;;79.67;40.87;;;1.50;99.90;;;;;;5037004;28;20479;-96
2022/03/02 03:00:40;;;;;;;85.07;41.53;;;1.50;99.90;;;;;;5037002;28;20501;-94
2022/03/02 03:03:07;;;;;;;90.00;42.93;;;1.30;99.90;;;;;;5037024;28;20075;-94
2022/03/02 03:05:34;;;;;;;87.13;42.87;;;1.40;99.90;;;;;;5036589;28;20048;-93
2022/03/02 03:08:01;;;;;;;81.50;42.20;;;1.40;99.90;;;;;;5036615;28;20045;-96
2022/03/02 03:10:28;;;;;;;92.03;43.73;;;1.50;99.90;;;;;;5036641;28;20061;-93
2022/03/02 03:12:54;;;;;;;83.83;42.00;;;1.60;99.90;;;;;;5036701;28;20520;-95
2022/03/02 03:15:21;;;;;;;87.73;41.53;;;1.60;99.90;;;;;;5036784;28;20041;-95
2022/03/02 03:17:48;;;;;;;84.10;40.50;;;1.60;99.90;;;;;;5020311;28;20496;-96
2022/03/02 03:20:17;;;;;;;93.50;43.90;;;1.70;99.90;;;;;;5036111;28;20040;-94
2022/03/02 03:22:43;;;;;;;103.97;45.43;;;1.60;99.90;;;;;;5036574;28;20407;-96
2022/03/02 03:25:10;;;;;;;101.10;46.63;;;1.50;99.90;;;;;;5036907;28;20119;-96
2022/03/02 03:27:37;;;;;;;97.50;44.20;;;1.50;99.90;;;;;;5036487;28;20041;-95
2022/03/02 03:30:08;;;;;;;95.80;43.83;;;2.50;99.90;;;;;;5036321;28;20047;-95
2022/03/02 03:32:34;;;;;;;100.17;44.43;;;1.30;99.90;;;;;;5036214;28;20041;-94
2022/03/02 03:35:01;;;;;;;100.63;46.10;;;1.50;99.90;;;;;;5036381;28;20053;-95
2022/03/02 03:37:27;;;;;;;98.33;45.27;;;1.30;99.90;;;;;;5019824;28;20087;-96
2022/03/02 03:39:53;;;;;;;102.13;46.77;;;1.20;99.90;;;;;;5037210;28;20045;-95
2022/03/02 03:42:19;;;;;;;110.77;47.73;;;1.10;99.90;;;;;;5019686;28;20041;-96
2022/03/02 03:44:45;;;;;;;104.50;46.50;;;1.00;99.90;;;;;;5019769;28;20060;-95
2022/03/02 03:47:11;;;;;;;111.43;47.17;;;0.90;99.90;;;;;;5036479;28;20144;-96
2022/03/02 03:49:37;;;;;;;107.23;48.13;;;0.90;99.90;;;;;;5036438;28;20122;-95
2022/03/02 03:52:06;;;;;;;110.20;47.33;;;0.70;99.90;;;;;;5019597;28;20045;-96
2022/03/02 03:54:34;;;;;;;109.77;47.13;;;0.60;99.90;;;;;;5036611;28;20041;-94
2022/03/02 03:57:00;;;;;;;116.60;48.17;;;0.50;99.90;;;;;;5019682;28;20083;-93
2022/03/02 03:59:26;;;;;;;111.80;48.00;;;0.50;99.90;;;;;;5035449;28;20045;-96
2022/03/02 04:01:54;;;;;;;128.53;48.90;;;0.60;99.90;;;;;;5036303;28;20438;-94
2022/03/02 04:04:20;;;;;;;126.57;49.57;;;0.60;99.90;;;;;;5036069;28;20044;-96
2022/03/02 04:06:46;;;;;;;123.63;47.93;;;0.60;99.90;;;;;;5036162;28;20045;-96
2022/03/02 04:09:12;;;;;;;117.97;49.40;;;0.60;99.90;;;;;;5036466;28;20431;-96
2022/03/02 04:11:38;;;;;;;124.00;49.63;;;0.40;99.90;;;;;;5035655;28;20060;-96
2022/03/02 04:14:08;;;;;;;124.00;49.17;;;0.60;99.90;;;;;;5036062;28;20041;-94
2022/03/02 04:16:34;;;;;;;119.07;47.60;;;0.50;99.90;;;;;;5019855;28;20492;-94
2022/03/02 04:19:00;;;;;;;115.93;46.73;;;1.10;99.90;;;;;;5035709;28;20087;-95
2022/03/02 04:21:26;;;;;;;120.87;49.50;;;0.40;99.90;;;;;;5035687;28;20045;-96
2022/03/02 04:23:52;;;;;;;122.90;48.77;;;1.00;99.90;;;;;;5037097;28;20039;-95
2022/03/02 04:26:18;;;;;;;122.50;50.43;;;0.30;99.90;;;;;;5035712;28;20087;-96
2022/03/02 04:28:44;;;;;;;128.97;52.30;;;0.30;99.90;;;;;;5035916;28;20080;-94
2022/03/02 04:31:10;;;;;;;121.43;49.77;;;0.30;99.90;;;;;;5019089;28;20080;-94
2022/03/02 04:33:36;;;;;;;127.73;47.90;;;0.30;99.90;;;;;;5019072;28;20041;-96
2022/03/02 04:36:03;;;;;;;124.13;48.87;;;0.20;99.90;;;;;;5019438;28;20442;-94
2022/03/02 04:38:28;;;;;;;121.83;49.73;;;0.20;99.90;;;;;;5036311;28;20071;-95
2022/03/02 04:40:54;;;;;;;113.97;47.63;;;0.20;99.90;;;;;;5035673;28;20040;-94
2022/03/02 04:43:20;;;;;;;124.40;49.10;;;0.20;99.90;;;;;;5035346;28;20041;-94
2022/03/02 04:45:46;;;;;;;121.67;48.70;;;0.10;99.90;;;;;;5018839;28;20416;-96
2022/03/02 04:48:12;;;;;;;124.47;50.73;;;0.00;99.90;;;;;;5035752;28;20045;-96
2022/03/02 04:50:38;;;;;;;107.63;47.00;;;0.30;99.90;;;;;;5035499;28;20526;-94
2022/03/02 04:53:04;;;;;;;128.03;50.37;;;0.00;99.90;;;;;;5036028;28;20079;-94
2022/03/02 04:55:31;;;;;;;125.63;51.00;;;-0.10;99.90;;;;;;5035538;28;20128;-96
2022/03/02 04:57:59;;;;;;;131.93;53.13;;;-0.10;99.90;;;;;;5019165;28;20557;-96
2022/03/02 05:00:32;;;;;;;130.53;51.67;;;0.00;99.90;;;;;;5035188;28;20044;-96
2022/03/02 05:03:00;;;;;;;120.28;50.40;;;0.00;99.90;;;;;;5035590;28;20044;-96
2022/03/02 05:05:27;;;;;;;131.53;52.13;;;0.00;99.90;;;;;;5035528;28;20040;-94
2022/03/02 05:07:53;;;;;;;118.67;51.07;;;0.30;99.90;;;;;;5035910;28;20448;-94
2022/03/02 05:10:21;;;;;;;126.93;52.83;;;-0.10;99.90;;;;;;5020618;28;20124;-93
2022/03/02 05:12:47;;;;;;;125.90;49.73;;;-0.10;99.90;;;;;;5039002;28;20408;-96
2022/03/02 05:15:14;;;;;;;120.50;51.30;;;-0.10;99.90;;;;;;5038952;28;20052;-96
2022/03/02 05:17:41;;;;;;;128.93;52.83;;;0.50;99.90;;;;;;5039221;28;20480;-96
2022/03/02 05:20:09;;;;;;;131.07;53.90;;;-0.10;99.90;;;;;;5022752;28;20049;-95
2022/03/02 05:22:35;;;;;;;120.20;51.43;;;-0.10;99.90;;;;;;5039515;28;20045;-94
2022/03/02 05:25:03;;;;;;;128.97;53.33;;;-0.10;99.90;;;;;;5038505;28;20442;-94
2022/03/02 05:27:29;;;;;;;123.40;53.37;;;0.10;99.90;;;;;;5038524;28;20105;-96
2022/03/02 05:29:55;;;;;;;124.37;52.37;;;0.20;99.90;;;;;;5022184;28;20135;-96
2022/03/02 05:32:22;;;;;;;127.53;53.80;;;0.10;99.90;;;;;;5038425;28;20041;-96
2022/03/02 05:34:48;;;;;;;124.67;50.70;;;0.10;99.90;;;;;;5039324;28;20494;-94
2022/03/02 05:37:14;;;;;;;127.83;52.90;;;0.10;99.90;;;;;;5038581;28;20049;-96
2022/03/02 05:39:40;;;;;;;121.23;52.07;;;0.60;99.90;;;;;;5038663;28;20045;-94
2022/03/02 05:42:06;;;;;;;115.27;50.53;;;0.00;99.90;;;;;;5038978;28;20045;-96
2022/03/02 05:44:32;;;;;;;124.10;52.97;;;0.00;99.90;;;;;;5038063;28;20080;-96
2022/03/02 05:46:58;;;;;;;120.83;51.03;;;-0.10;99.90;;;;;;5022006;28;20068;-94
2022/03/02 05:49:26;;;;;;;119.53;50.93;;;-0.20;99.90;;;;;;5038380;28;20045;-95
2022/03/02 05:51:52;;;;;;;126.47;52.50;;;-0.30;99.90;;;;;;5038026;28;20064;-95
2022/03/02 05:57:02;;;;;;;125.40;51.87;;;-0.30;99.90;;;;;;5109597;28;20054;-96
2022/03/02 05:59:28;;;;;;;117.30;50.97;;;-0.30;99.90;;;;;;5064616;28;20134;-94
2022/03/02 06:01:54;;;;;;;117.53;50.87;;;-0.30;99.90;;;;;;5065329;28;20071;-94
2022/03/02 06:04:20;;;;;;;130.00;51.00;;;-0.30;99.90;;;;;;5064577;28;20043;-95
2022/03/02 06:06:45;;;;;;;122.23;51.90;;;-0.20;99.90;;;;;;5081324;28;20043;-94
2022/03/02 06:09:12;;;;;;;108.53;48.87;;;-0.20;99.90;;;;;;5064793;28;20172;-95
2022/03/02 06:11:41;;;;;;;107.37;47.93;;;-0.30;99.90;;;;;;5064326;28;20047;-95
2022/03/02 06:14:07;;;;;;;117.30;50.50;;;0.10;99.90;;;;;;5081546;28;20105;-96
2022/03/02 06:16:33;;;;;;;122.13;52.23;;;-0.30;99.90;;;;;;5081239;28;20152;-96
2022/03/02 06:18:59;;;;;;;110.90;50.80;;;-0.30;99.90;;;;;;5081868;28;20075;-94
2022/03/02 06:21:28;;;;;;;130.93;53.07;;;-0.30;99.90;;;;;;5080475;28;20135;-95
2022/03/02 06:23:54;;;;;;;116.90;50.53;;;-0.30;99.90;;;;;;5080996;28;20408;-96
2022/03/02 06:26:22;;;;;;;117.50;51.53;;;-0.30;99.90;;;;;;5064574;28;20505;-95
2022/03/02 06:28:49;;;;;;;128.20;52.13;;;-0.30;99.90;;;;;;5081351;28;20054;-95
2022/03/02 06:31:15;;;;;;;125.43;53.63;;;-0.20;99.90;;;;;;5080724;28;20047;-96
2022/03/02 06:33:41;;;;;;;120.13;52.00;;;0.00;99.90;;;;;;5081317;28;20054;-96
2022/03/02 06:36:08;;;;;;;131.40;53.40;;;-0.10;99.90;;;;;;5080652;28;20111;-95
2022/03/02 06:38:34;;;;;;;119.27;52.00;;;0.00;99.90;;;;;;5080579;28;20044;-95
2022/03/02 06:41:14;;;;;;;123.33;52.87;;;0.00;99.90;;;;;;5080447;28;20050;-96
2022/03/02 06:44:04;;;;;;;120.20;50.33;;;0.00;99.90;;;;;;5080629;28;20051;-94
2022/03/02 06:46:40;;;;;;;116.47;50.30;;;0.10;99.90;;;;;;5080328;28;20044;-96
2022/03/02 06:49:29;;;;;;;113.50;48.67;;;0.50;99.90;;;;;;5081198;28;20075;-95
2022/03/02 06:51:59;;;;;;;113.17;50.13;;;0.10;99.90;;;;;;5080407;28;20066;-96
2022/03/02 06:54:30;;;;;;;108.60;46.83;;;0.20;99.90;;;;;;5080417;28;20082;-94
2022/03/02 06:57:00;;;;;;;102.90;47.20;;;-0.10;99.90;;;;;;5076638;28;20566;-96
2022/03/02 06:59:43;;;;;;;112.40;50.63;;;0.60;99.90;;;;;;5076792;28;20433;-96
2022/03/02 07:02:15;;;;;;;105.85;46.13;;;0.30;99.90;;;;;;5076692;28;20151;-96
2022/03/02 07:04:43;;;;;;;114.97;50.50;;;0.30;99.90;;;;;;5077099;28;20083;-95
2022/03/02 07:07:10;;;;;;;124.77;52.20;;;0.20;99.90;;;;;;5076529;28;20043;-95
2022/03/02 07:09:35;;;;;;;117.73;50.23;;;0.50;99.90;;;;;;5060094;28;20040;-93
2022/03/02 07:12:05;;;;;;;124.97;53.37;;;0.30;99.90;;;;;;5077892;28;20388;-96
2022/03/02 07:14:32;;;;;;;111.73;50.63;;;0.30;99.90;;;;;;5076485;28;20069;-95
2022/03/02 07:17:00;;;;;;;113.20;51.20;;;0.60;99.90;;;;;;5077188;28;20044;-95
2022/03/02 07:19:27;;;;;;;118.47;52.13;;;0.40;99.90;;;;;;5077068;28;20055;-96
2022/03/02 07:21:54;;;;;;;111.37;51.93;;;0.30;99.90;;;;;;5076072;28;20134;-95
2022/03/02 07:24:23;;;;;;;115.13;50.60;;;0.50;99.90;;;;;;5076370;28;20040;-95
2022/03/02 07:26:57;;;;;;;123.10;51.90;;;0.50;99.90;;;;;;5059897;28;20465;-96
2022/03/02 07:29:28;;;;;;;98.13;49.57;;;0.60;99.90;;;;;;5076780;28;20067;-96
2022/03/02 07:31:57;;;;;;;119.27;50.10;;;0.60;99.90;;;;;;5077378;28;20044;-96
2022/03/02 07:34:26;;;;;;;102.00;45.93;;;0.60;99.90;;;;;;5058955;28;20482;-94
2022/03/02 07:36:52;;;;;;;108.93;52.70;;;0.70;99.90;;;;;;5076954;28;20130;-95
2022/03/02 07:39:18;;;;;;;115.57;52.40;;;0.70;99.90;;;;;;5059751;28;20490;-95
2022/03/02 07:41:44;;;;;;;110.13;51.73;;;0.70;99.90;;;;;;5076263;28;20059;-96
2022/03/02 07:44:10;;;;;;;110.80;49.87;;;0.80;99.90;;;;;;5076456;28;20044;-95
2022/03/02 07:46:36;;;;;;;115.83;52.60;;;0.80;99.90;;;;;;5075909;28;20044;-96
2022/03/02 07:49:03;;;;;;;108.37;51.17;;;0.80;99.90;;;;;;5076612;28;20082;-96
2022/03/02 07:51:33;;;;;;;108.47;51.10;;;1.00;99.90;;;;;;5076347;28;20120;-95
2022/03/02 07:54:04;;;;;;;112.60;53.00;;;1.00;99.90;;;;;;5075762;28;20089;-96
2022/03/02 07:56:32;;;;;;;104.00;49.53;;;1.10;99.90;;;;;;5075933;28;20044;-96
2022/03/02 07:59:02;;;;;;;94.73;48.47;;;1.10;99.90;;;;;;5075690;28;20051;-95
2022/03/02 08:01:31;;;;;;;101.30;51.07;;;1.30;99.90;;;;;;5076955;28;20051;-92
2022/03/02 08:03:58;;;;;;;90.77;47.63;;;1.30;99.90;;;;;;5076148;28;20040;-95
2022/03/02 08:06:25;;;;;;;99.13;49.37;;;1.60;99.90;;;;;;5075788;28;20044;-96
2022/03/02 08:08:51;;;;;;;99.73;48.77;;;1.50;99.90;;;;;;5042871;28;20044;-95
2022/03/02 08:11:17;;;;;;;87.77;46.40;;;1.60;99.90;;;;;;5075857;28;20052;-95
2022/03/02 08:13:43;;;;;;;85.73;46.80;;;1.50;99.90;;;;;;5059232;28;20501;-95
2022/03/02 08:16:10;;;;;;;92.50;46.83;;;1.70;99.90;;;;;;5076271;28;20442;-96
2022/03/02 08:18:36;;;;;;;93.33;46.13;;;1.70;99.90;;;;;;5059656;28;20078;-96
2022/03/02 08:21:03;;;;;;;88.97;46.97;;;1.70;99.90;;;;;;5059333;28;20044;-96
2022/03/02 08:23:38;;;;;;;85.87;46.53;;;1.80;99.90;;;;;;5076048;28;20512;-95
2022/03/02 08:26:05;;;;;;;86.03;45.07;;;1.80;99.90;;;;;;5075904;28;20051;-96
2022/03/02 08:28:35;;;;;;;92.03;47.87;;;2.00;99.90;;;;;;5076763;28;20130;-96
2022/03/02 08:31:03;;;;;;;87.70;47.30;;;2.00;99.90;;;;;;5076939;28;20051;-96
2022/03/02 08:33:34;;;;;;;92.20;48.20;;;2.20;99.90;;;;;;5075508;28;20051;-96
2022/03/02 08:36:01;;;;;;;86.23;46.17;;;2.20;99.90;;;;;;5076412;28;20047;-96
2022/03/02 08:38:27;;;;;;;80.37;45.27;;;2.30;98.20;;;;;;5076032;28;20524;-95
2022/03/02 08:40:55;;;;;;;87.87;47.23;;;2.30;94.50;;;;;;5075820;28;20047;-96
2022/03/02 08:43:21;;;;;;;81.60;45.43;;;2.40;63.80;;;;;;5075846;28;20101;-96
2022/03/02 08:45:50;;;;;;;77.67;46.50;;;2.60;27.50;;;;;;5079011;28;20044;-95
2022/03/02 08:48:19;;;;;;;84.93;46.53;;;2.60;15.10;;;;;;5079844;28;20163;-95
2022/03/02 08:50:46;;;;;;;84.93;44.47;;;2.60;14.20;;;;;;5079407;28;20075;-96
2022/03/02 08:53:16;;;;;;;78.80;45.30;;;2.80;6.80;;;;;;5079489;28;20047;-94
2022/03/02 08:55:43;;;;;;;75.83;42.77;;;2.80;1.00;;;;;;5079397;28;20058;-96
2022/03/02 08:58:12;;;;;;;75.23;43.17;;;2.80;1.00;;;;;;5080142;28;20044;-93
2022/03/02 09:00:38;;;;;;;71.07;40.40;;;2.90;1.00;;;;;;5062898;28;20126;-94
2022/03/02 09:03:04;;;;;;;66.68;41.15;;;3.20;1.00;;;;;;5062652;28;20048;-92
2022/03/02 09:05:32;;;;;;;71.00;41.67;;;3.10;1.00;;;;;;5078985;28;20123;-94
2022/03/02 09:07:58;;;;;;;73.40;42.15;;;3.20;1.00;;;;;;5079284;28;20081;-96
2022/03/02 09:10:24;;;;;;;70.37;39.77;;;3.30;1.00;;;;;;5062675;28;20512;-95
2022/03/02 09:12:55;;;;;;;62.72;38.15;;;3.40;1.00;;;;;;5081972;28;20047;-94
2022/03/02 09:15:21;;;;;;;60.97;37.40;;;3.40;1.00;;;;;;5062838;28;20048;-95
2022/03/02 09:17:49;;;;;;;63.00;38.07;;;3.50;1.00;;;;;;5080522;28;20384;-92
2022/03/02 09:20:15;;;;;;;63.67;37.97;;;3.60;1.00;;;;;;5078907;28;20076;-94
2022/03/02 09:22:41;;;;;;;69.00;37.97;;;4.00;1.00;;;;;;5079857;28;20057;-95
2022/03/02 09:25:08;;;;;;;65.05;38.70;;;4.00;1.00;;;;;;5078860;28;20036;-95
2022/03/02 09:27:34;;;;;;;62.95;34.40;;;3.80;1.00;;;;;;5079908;28;20124;-94
2022/03/02 09:30:04;;;;;;;59.38;36.22;;;3.80;1.00;;;;;;5079460;28;20501;-95
2022/03/02 09:32:32;;;;;;;59.43;35.83;;;3.90;1.00;;;;;;5078661;28;20161;-94
2022/03/02 09:34:59;;;;;;;57.50;34.13;;;3.90;1.00;;;;;;5078360;28;20081;-95
2022/03/02 09:37:28;;;;;;;59.28;35.65;;;3.90;99.90;;;;;;5078764;28;20044;-95
2022/03/02 09:39:54;;;;;;;61.22;36.33;;;4.20;99.90;;;;;;5078966;28;20075;-94
2022/03/02 09:42:45;;;;;;;56.72;34.80;;;4.30;99.90;;;;;;5078347;28;20043;-95
2022/03/02 09:45:12;;;;;;;56.17;33.60;;;4.30;99.90;;;;;;5078547;28;20043;-94
2022/03/02 09:47:45;;;;;;;56.28;33.30;;;4.60;99.90;;;;;;5078478;28;20046;-93
2022/03/02 09:50:15;;;;;;;58.63;34.30;;;4.60;99.90;;;;;;5078005;28;20116;-94
2022/03/02 09:52:45;;;;;;;51.65;31.55;;;4.60;99.90;;;;;;5076899;28;20093;-96
2022/03/02 09:55:15;;;;;;;56.28;32.03;;;4.70;99.90;;;;;;5078089;28;20043;-96
2022/03/02 09:57:48;;;;;;;54.47;31.55;;;4.70;99.90;;;;;;5079557;28;20043;-96
2022/03/02 10:00:16;;;;;;;49.90;30.65;;;4.80;99.90;;;;;;5077323;28;20036;-95
2022/03/02 10:02:45;;;;;;;45.78;29.88;;;4.90;99.90;;;;;;5079703;28;20089;-96
2022/03/02 10:05:16;;;;;;;49.47;29.52;;;5.00;99.90;;;;;;5079282;28;20125;-96
2022/03/02 10:07:54;;;;;;;48.35;30.10;;;5.10;99.90;;;;;;5077499;28;20050;-94
2022/03/02 10:10:24;;;;;;;44.22;28.30;;;5.20;99.90;;;;;;5086308;28;20379;-93
2022/03/02 10:12:59;;;;;;;46.42;28.60;;;5.20;99.90;;;;;;5079967;28;20039;-95
2022/03/02 10:15:26;;;;;;;43.95;27.63;;;5.60;99.90;;;;;;5079584;28;20141;-94
2022/03/02 10:17:56;;;;;;;41.50;27.88;;;5.70;99.90;;;;;;5077831;28;20127;-94
2022/03/02 10:20:25;;;;;;;35.63;24.83;;;6.40;1.00;;;;;;5069297;28;20097;-93
2022/03/02 10:23:24;;;;;;;41.13;26.15;;;7.40;99.90;;;;;;5061388;28;20044;-94
2022/03/02 10:26:06;;;;;;;38.42;24.95;;;8.40;1.00;;;;;;5088728;28;20043;-96
2022/03/02 10:29:00;;;;;;;32.78;23.67;;;9.50;99.90;;;;;;5073287;28;20040;-95
2022/03/02 10:31:40;;;;;;;34.47;23.48;;;9.90;98.30;;;;;;5061610;28;20398;-95
2022/03/02 10:34:25;;;;;;;32.22;23.52;;;9.90;1.00;;;;;;5061649;28;20039;-95
2022/03/02 10:37:03;;;;;;;35.00;23.75;;;10.20;99.90;;;;;;5074729;28;20124;-96
2022/03/02 10:39:47;;;;;;;32.90;23.33;;;10.70;99.90;;;;;;5080667;28;20498;-96
2022/03/02 10:42:20;;;;;;;33.92;23.17;;;11.10;99.90;;;;;;5067648;28;20035;-95
2022/03/02 10:45:12;;;;;;;29.08;22.35;;;11.30;99.90;;;;;;5080031;28;20076;-96
2022/03/02 10:47:58;;;;;;;36.20;24.00;;;11.40;99.90;;;;;;5080197;28;20048;-96
2022/03/02 10:50:28;;;;;;;33.00;24.05;;;12.00;99.90;;;;;;5079333;28;20078;-96
2022/03/02 10:52:56;;;;;;;30.98;23.10;;;12.30;1.00;;;;;;5078545;28;20509;-95
2022/03/02 10:55:23;;;;;;;31.23;23.77;;;12.20;99.90;;;;;;5034739;28;20052;-95
2022/03/02 10:57:50;;;;;;;33.65;22.63;;;12.60;99.90;;;;;;5051907;28;20051;-96
2022/03/02 11:00:19;;;;;;;31.92;23.42;;;12.90;99.90;;;;;;5076679;28;20477;-95
2022/03/02 11:02:50;;;;;;;31.52;23.33;;;13.10;1.00;;;;;;5082666;28;20036;-95
2022/03/02 11:05:18;;;;;;;31.67;23.77;;;13.00;1.00;;;;;;5095920;28;20056;-96
2022/03/02 11:07:47;;;;;;;29.75;21.88;;;13.30;1.00;;;;;;5061101;28;20102;-96
2022/03/02 11:10:16;;;;;;;28.45;22.40;;;13.30;1.00;;;;;;5094146;28;20039;-96
2022/03/02 11:12:44;;;;;;;29.75;22.63;;;13.30;1.00;;;;;;5078616;28;20073;-96
2022/03/02 11:15:11;;;;;;;27.83;22.77;;;13.20;1.00;;;;;;5076375;28;20036;-96
2022/03/02 11:17:57;;;;;;;32.97;23.77;;;13.40;1.00;;;;;;5064711;28;20071;-96
2022/03/02 11:20:25;;;;;;;30.33;22.08;;;13.50;1.00;;;;;;5060367;28;20458;-96
2022/03/02 11:22:59;;;;;;;28.67;21.42;;;13.60;1.00;;;;;;5068725;28;20040;-95
2022/03/02 11:25:49;;;;;;;29.10;21.48;;;13.90;1.00;;;;;;5079147;28;20058;-95
2022/03/02 11:28:24;;;;;;;29.73;22.48;;;13.90;1.00;;;;;;5079614;28;20051;-96
2022/03/02 11:30:57;;;;;;;31.65;21.65;;;14.00;1.00;;;;;;5079116;28;20039;-95
2022/03/02 11:33:27;;;;;;;31.63;22.38;;;14.20;1.00;;;;;;5075259;28;20054;-96
2022/03/02 11:35:59;;;;;;;29.10;22.20;;;14.40;1.00;;;;;;5078068;28;20088;-96
2022/03/02 11:38:29;;;;;;;32.28;23.10;;;14.60;1.00;;;;;;5059453;28;20044;-95
2022/03/02 11:40:55;;;;;;;27.60;21.38;;;14.70;1.00;;;;;;5076453;28;20039;-95
2022/03/02 11:43:28;;;;;;;29.23;22.70;;;14.90;1.00;;;;;;5080364;28;20100;-95
2022/03/02 11:46:03;;;;;;;32.10;22.13;;;14.60;1.00;;;;;;5079704;28;20473;-94
2022/03/02 11:51:21;;;;;;;29.92;21.33;;;14.60;1.00;;;;;;5108025;28;20052;-96
2022/03/02 11:53:52;;;;;;;27.52;20.65;;;14.70;1.00;;;;;;5071463;28;20040;-95
2022/03/02 11:56:20;;;;;;;24.73;18.70;;;15.00;1.00;;;;;;5075811;28;20073;-96
2022/03/02 11:59:10;;;;;;;32.15;21.27;;;15.10;1.00;;;;;;5060345;28;20032;-96
2022/03/02 12:01:40;;;;;;;31.40;21.35;;;15.30;1.00;;;;;;5053658;28;20163;-96
2022/03/02 12:04:07;;;;;;;29.23;20.42;;;15.30;1.00;;;;;;5061721;28;20036;-95
2022/03/02 12:06:50;;;;;;;26.67;19.67;;;15.10;1.00;;;;;;5064395;28;20089;-95
2022/03/02 12:09:25;;;;;;;24.80;19.40;;;14.80;1.00;;;;;;5079255;28;20051;-94
2022/03/02 12:11:53;;;;;;;28.27;20.23;;;14.50;1.00;;;;;;5077576;28;20050;-96
2022/03/02 12:14:19;;;;;;;28.63;20.58;;;14.30;1.00;;;;;;5076447;28;20078;-95
2022/03/02 12:16:49;;;;;;;29.23;22.33;;;14.10;1.00;;;;;;5042182;28;20094;-93
2022/03/02 12:19:30;;;;;;;31.77;19.67;;;14.10;1.00;;;;;;5060011;28;20040;-95
2022/03/02 12:22:06;;;;;;;26.40;18.67;;;13.90;1.00;;;;;;5046789;28;20048;-95
2022/03/02 12:24:34;;;;;;;26.65;18.13;;;13.90;1.00;;;;;;5063767;28;20093;-92
2022/03/02 12:27:08;;;;;;;25.05;19.52;;;13.90;1.00;;;;;;5046459;28;20097;-96
2022/03/02 12:29:36;;;;;;;25.25;18.50;;;14.00;1.00;;;;;;5063032;28;20128;-96
2022/03/02 12:32:15;;;;;;;27.65;18.98;;;13.80;1.00;;;;;;5063508;28;20055;-95
2022/03/02 12:34:45;;;;;;;25.40;18.23;;;13.70;1.00;;;;;;5063313;28;20044;-94
2022/03/02 12:37:12;;;;;;;23.23;17.45;;;13.80;1.00;;;;;;5062994;28;20180;-96
2022/03/02 12:39:40;;;;;;;24.27;17.88;;;14.10;1.00;;;;;;5063069;28;20044;-95
2022/03/02 12:42:10;;;;;;;24.25;18.13;;;14.10;1.00;;;;;;5046115;28;20076;-94
2022/03/02 12:44:41;;;;;;;26.90;19.75;;;14.10;1.00;;;;;;5063029;28;20059;-94
2022/03/02 12:47:11;;;;;;;25.17;18.65;;;14.00;1.00;;;;;;5063086;28;20044;-92